Time;durP1;ratioP1;P1;durP2;ratioP2;P2;SDS_P1;SDS_P2;PMS_P1;PMS_P2;Temp;Humidity;BMP_temperature;BMP_pressure;BME280_temperature;BME280_humidity;BME280_pressure;Samples;Min_cycle;Max_cycle;Signal;HPM_P1;HPM_P2
2023/06/19 00:00:50;;;;;;;4.35;3.30;;;;;;;18.57;50.79;93975.53;4988343;28;20496;-76
2023/06/19 00:03:15;;;;;;;5.32;3.83;;;;;;;18.66;50.46;93989.53;4989176;28;20060;-74
2023/06/19 00:05:41;;;;;;;4.75;3.83;;;;;;;18.61;50.37;93970.19;4989049;28;20534;-74
2023/06/19 00:08:06;;;;;;;7.97;3.83;;;;;;;18.76;50.02;93988.19;4986775;28;20026;-75
2023/06/19 00:10:32;;;;;;;3.88;3.47;;;;;;;18.60;50.26;93977.50;4988338;28;20037;-75
2023/06/19 00:12:58;;;;;;;4.88;3.20;;;;;;;18.63;50.18;93976.75;4985056;28;20072;-75
2023/06/19 00:15:23;;;;;;;4.55;4.05;;;;;;;18.51;50.74;93968.88;4986746;28;20552;-75
2023/06/19 00:17:48;;;;;;;5.75;4.85;;;;;;;18.37;50.57;93984.78;4987532;28;20034;-76
2023/06/19 00:20:14;;;;;;;7.95;3.78;;;;;;;18.44;50.66;93990.28;4994636;28;20026;-75
2023/06/19 00:22:40;;;;;;;5.13;4.63;;;;;;;18.52;50.46;93975.03;4990130;28;20442;-75
2023/06/19 00:25:06;;;;;;;5.78;3.83;;;;;;;18.58;50.67;93982.44;4987875;28;20038;-75
2023/06/19 00:27:32;;;;;;;5.38;3.92;;;;;;;18.48;50.57;93958.81;4989350;28;20522;-74
2023/06/19 00:30:01;;;;;;;5.65;3.30;;;;;;;18.61;50.11;93973.66;4990010;28;20125;-76
2023/06/19 00:32:28;;;;;;;4.15;3.72;;;;;;;18.53;50.81;93971.97;4988981;28;20060;-76
2023/06/19 00:34:53;;;;;;;6.30;3.95;;;;;;;18.56;50.43;93967.78;4991000;28;20039;-75
2023/06/19 00:37:19;;;;;;;3.72;3.33;;;;;;;18.60;50.47;93971.31;4988942;28;20089;-76
2023/06/19 00:39:44;;;;;;;5.13;3.53;;;;;;;18.52;50.25;93958.88;4990353;28;20436;-75
2023/06/19 00:42:10;;;;;;;6.75;3.92;;;;;;;18.60;50.43;93961.31;4987116;28;20437;-75
2023/06/19 00:44:35;;;;;;;5.88;3.92;;;;;;;18.63;50.20;93949.03;4988515;28;20053;-74
2023/06/19 00:47:02;;;;;;;4.53;4.10;;;;;;;18.47;50.10;93951.88;4986066;28;20560;-75
2023/06/19 00:49:30;;;;;;;7.20;3.88;;;;;;;18.52;50.42;93958.88;4987993;28;20500;-74
2023/06/19 00:51:55;;;;;;;4.38;3.53;;;;;;;18.39;50.61;93950.97;4990742;28;20619;-75
2023/06/19 00:54:21;;;;;;;5.53;3.78;;;;;;;18.30;50.48;93930.78;4989566;28;20025;-75
2023/06/19 00:56:48;;;;;;;4.80;3.80;;;;;;;18.26;51.01;93938.81;4988623;28;20041;-75
2023/06/19 00:59:18;;;;;;;6.38;3.78;;;;;;;18.24;50.83;93933.00;4991938;28;20121;-75
2023/06/19 01:01:44;;;;;;;5.60;3.63;;;;;;;18.30;51.06;93936.19;4987802;28;20495;-75
2023/06/19 01:04:10;;;;;;;5.30;4.05;;;;;;;18.32;51.01;93921.25;4982666;28;20037;-75
2023/06/19 01:06:59;;;;;;;4.35;3.95;;;;;;;18.39;50.94;93931.34;4988113;28;20034;-75
2023/06/19 01:09:33;;;;;;;4.57;3.97;;;;;;;18.33;51.10;93927.41;4987317;28;20041;-73
2023/06/19 01:12:13;;;;;;;5.35;4.68;;;;;;;18.23;51.30;93928.78;4987397;28;20520;-75
2023/06/19 01:15:00;;;;;;;6.50;4.00;;;;;;;18.20;51.14;93920.63;4985527;28;20041;-75
2023/06/19 01:17:27;;;;;;;6.00;4.10;;;;;;;18.25;51.36;93931.09;5002929;28;20621;-75
2023/06/19 01:19:54;;;;;;;5.95;4.40;;;;;;;18.17;51.41;93926.72;4988556;28;20033;-75
2023/06/19 01:22:38;;;;;;;3.60;3.22;;;;;;;18.11;51.19;93912.00;4992778;28;20026;-75
2023/06/19 01:25:08;;;;;;;5.10;3.85;;;;;;;18.10;51.82;93918.53;4986481;28;20042;-75
2023/06/19 01:27:34;;;;;;;5.88;4.75;;;;;;;18.23;51.32;93928.78;4985771;28;20480;-76
2023/06/19 01:30:01;;;;;;;6.38;4.35;;;;;;;18.18;51.96;93931.78;4992116;28;20184;-75
2023/06/19 01:32:53;;;;;;;6.10;3.92;;;;;;;18.13;51.35;93909.75;4988026;28;20092;-75
2023/06/19 01:35:23;;;;;;;4.55;4.15;;;;;;;18.12;52.15;93924.34;4986998;28;20025;-75
2023/06/19 01:37:50;;;;;;;6.75;3.90;;;;;;;18.05;51.83;93927.66;4987281;28;20354;-75
2023/06/19 01:40:20;;;;;;;4.35;3.95;;;;;;;18.05;51.97;93943.81;4992140;28;20049;-75
2023/06/19 01:42:46;;;;;;;5.07;4.03;;;;;;;18.11;52.39;93949.69;4988275;28;20155;-76
2023/06/19 01:45:12;;;;;;;4.18;3.78;;;;;;;18.17;51.30;93948.28;4986780;28;20041;-75
2023/06/19 01:47:37;;;;;;;4.30;3.90;;;;;;;18.14;52.02;93949.00;4993667;28;20038;-75
2023/06/19 01:50:04;;;;;;;3.92;3.53;;;;;;;18.07;52.31;93944.25;4984646;28;20084;-75
2023/06/19 01:52:29;;;;;;;5.68;4.15;;;;;;;18.08;53.30;93942.34;4988130;28;20085;-74
2023/06/19 01:54:54;;;;;;;7.55;3.90;;;;;;;17.91;53.96;93944.31;4984404;28;20038;-75
2023/06/19 01:57:20;;;;;;;9.95;5.18;;;;;;;17.85;54.69;93953.78;4987285;28;20033;-75
2023/06/19 01:59:45;;;;;;;6.22;4.50;;;;;;;17.68;54.85;93931.94;4982158;28;20074;-76
2023/06/19 02:02:11;;;;;;;9.25;4.55;;;;;;;17.70;55.08;93951.19;4993161;28;20104;-74
2023/06/19 02:04:37;;;;;;;6.05;4.65;;;;;;;17.53;55.26;93928.19;4995237;28;20061;-74
2023/06/19 02:07:02;;;;;;;7.15;4.07;;;;;;;17.56;55.47;93941.69;4988321;28;20136;-76
2023/06/19 02:09:27;;;;;;;6.03;4.68;;;;;;;17.58;55.69;93960.16;4998049;28;20030;-74
2023/06/19 02:11:53;;;;;;;7.00;4.82;;;;;;;17.49;56.09;93973.81;4989642;28;20072;-75
2023/06/19 02:14:18;;;;;;;5.68;4.00;;;;;;;17.37;56.49;93954.34;4997128;28;20058;-75
2023/06/19 02:16:44;;;;;;;6.03;4.00;;;;;;;17.40;57.26;93975.16;4994121;28;20089;-75
2023/06/19 02:19:12;;;;;;;4.95;4.13;;;;;;;17.35;56.91;93967.38;4988778;28;20073;-76
2023/06/19 02:21:38;;;;;;;6.85;4.40;;;;;;;17.27;57.55;93965.63;4989816;28;20522;-74
2023/06/19 02:24:05;;;;;;;5.35;4.68;;;;;;;17.09;57.56;93955.25;4988326;28;20038;-75
2023/06/19 02:26:30;;;;;;;5.50;4.75;;;;;;;17.23;57.11;93970.16;4986660;28;20093;-75
2023/06/19 02:28:56;;;;;;;6.18;4.60;;;;;;;17.16;57.06;93968.88;4989654;28;20502;-75
2023/06/19 02:31:22;;;;;;;5.47;4.43;;;;;;;17.10;57.48;93956.03;4991733;28;20037;-76
2023/06/19 02:33:48;;;;;;;8.15;4.13;;;;;;;17.16;57.17;93966.19;4990247;28;20582;-75
2023/06/19 02:36:18;;;;;;;5.07;4.00;;;;;;;17.15;54.90;93948.53;4989070;28;20034;-76
2023/06/19 02:38:43;;;;;;;5.07;3.75;;;;;;;17.14;56.26;93962.31;4988859;28;20042;-75
2023/06/19 02:41:09;;;;;;;5.03;4.53;;;;;;;17.16;56.81;93982.31;4990064;28;20378;-75
2023/06/19 02:43:34;;;;;;;4.75;4.10;;;;;;;17.16;54.86;93974.25;4992762;28;20032;-75
2023/06/19 02:45:59;;;;;;;5.75;4.88;;;;;;;17.00;54.73;93945.84;4989981;28;21171;-75
2023/06/19 02:48:25;;;;;;;4.88;4.15;;;;;;;17.04;56.32;93958.22;4990306;28;20065;-77
2023/06/19 02:50:50;;;;;;;4.90;4.35;;;;;;;17.07;56.62;93975.53;4991478;28;20026;-75
2023/06/19 02:53:16;;;;;;;4.75;4.30;;;;;;;17.05;56.29;93969.75;4990035;28;20743;-75
2023/06/19 02:55:42;;;;;;;4.85;4.22;;;;;;;17.10;55.45;93978.31;4996713;28;20133;-74
2023/06/19 02:58:07;;;;;;;6.03;4.63;;;;;;;17.09;56.00;93982.13;4988314;28;20382;-75
2023/06/19 03:00:32;;;;;;;5.75;4.63;;;;;;;16.91;57.00;93969.44;4990288;28;20321;-75
2023/06/19 03:02:59;;;;;;;7.07;4.90;;;;;;;16.86;57.14;93965.09;4989547;28;20635;-75
2023/06/19 03:05:26;;;;;;;5.57;4.47;;;;;;;16.93;57.38;93985.97;4988363;28;20411;-75
2023/06/19 03:07:52;;;;;;;5.75;4.95;;;;;;;16.93;57.56;93983.28;4989731;28;20072;-74
2023/06/19 03:10:17;;;;;;;6.57;4.50;;;;;;;17.01;56.36;93985.75;4989987;28;20026;-75
2023/06/19 03:12:42;;;;;;;6.68;4.55;;;;;;;17.11;54.82;93982.53;4988317;28;20143;-74
2023/06/19 03:15:08;;;;;;;6.05;4.93;;;;;;;16.86;56.06;93946.28;4990188;28;20046;-76
2023/06/19 03:17:33;;;;;;;6.30;4.60;;;;;;;16.94;56.54;93974.88;4987187;28;20038;-75
2023/06/19 03:19:59;;;;;;;5.72;4.68;;;;;;;17.07;55.28;93984.38;4989320;28;20499;-75
2023/06/19 03:22:24;;;;;;;4.38;3.97;;;;;;;17.02;55.26;93965.84;4989066;28;20041;-75
2023/06/19 03:24:49;;;;;;;7.20;5.32;;;;;;;16.91;55.45;93943.34;4989984;28;20034;-75
2023/06/19 03:27:15;;;;;;;6.50;3.78;;;;;;;17.12;54.90;93984.09;4994732;28;20069;-74
2023/06/19 03:29:40;;;;;;;4.28;3.88;;;;;;;17.16;53.61;93976.16;4991127;28;20042;-75
2023/06/19 03:32:06;;;;;;;6.07;4.63;;;;;;;17.29;53.19;93979.53;4987987;28;20591;-75
2023/06/19 03:34:31;;;;;;;5.07;4.22;;;;;;;17.35;52.83;93980.81;4988767;28;20028;-75
2023/06/19 03:36:57;;;;;;;4.35;3.95;;;;;;;17.35;53.13;93981.59;4987141;28;20038;-76
2023/06/19 03:39:23;;;;;;;4.35;3.70;;;;;;;17.39;52.85;93978.97;4987061;28;20786;-75
2023/06/19 03:41:48;;;;;;;5.97;4.70;;;;;;;17.31;54.02;93966.50;4991545;28;20038;-73
2023/06/19 03:44:13;;;;;;;6.38;4.70;;;;;;;17.37;53.54;93982.00;4990459;28;20253;-75
2023/06/19 03:46:39;;;;;;;5.65;4.15;;;;;;;17.46;53.52;93976.41;4990127;28;20026;-75
2023/06/19 03:49:06;;;;;;;5.45;4.30;;;;;;;17.42;53.54;93972.88;4988134;28;20044;-75
2023/06/19 03:51:31;;;;;;;5.43;4.60;;;;;;;17.54;53.21;93981.63;4988462;28;20038;-75
2023/06/19 03:53:56;;;;;;;5.35;4.05;;;;;;;17.60;53.34;93974.03;4987452;28;20052;-75
2023/06/19 03:56:22;;;;;;;6.13;4.13;;;;;;;17.69;52.53;93968.47;4986006;28;20308;-75
2023/06/19 03:58:47;;;;;;;5.45;4.40;;;;;;;17.77;52.49;93976.31;4993526;28;20563;-74
2023/06/19 04:01:13;;;;;;;6.60;3.90;;;;;;;17.73;51.33;93969.31;4990739;28;20146;-75
2023/06/19 04:03:38;;;;;;;4.95;4.28;;;;;;;17.63;52.18;93967.97;4987870;28;20038;-75
2023/06/19 04:06:03;;;;;;;5.07;4.28;;;;;;;17.67;52.78;93976.88;4989182;28;20033;-75
2023/06/19 04:08:29;;;;;;;7.22;4.00;;;;;;;17.75;52.94;93962.44;4990340;28;20085;-75
2023/06/19 04:10:54;;;;;;;5.53;3.75;;;;;;;17.82;52.48;93962.59;4989389;28;20311;-76
2023/06/19 04:13:20;;;;;;;5.40;3.85;;;;;;;17.89;52.68;93972.72;4990281;28;20095;-76
2023/06/19 04:15:47;;;;;;;4.55;3.90;;;;;;;17.86;52.22;93976.09;4987971;28;20081;-76
2023/06/19 04:18:12;;;;;;;4.32;3.03;;;;;;;17.85;52.11;93975.31;4988423;28;20052;-75
2023/06/19 04:20:37;;;;;;;6.32;3.95;;;;;;;18.00;51.78;93976.41;4989731;28;20037;-75
2023/06/19 04:23:03;;;;;;;4.13;3.72;;;;;;;17.99;51.82;93977.56;4989561;28;20041;-75
2023/06/19 04:25:28;;;;;;;4.47;4.03;;;;;;;18.08;51.97;93969.25;4986583;28;20049;-75
2023/06/19 04:27:53;;;;;;;4.50;4.10;;;;;;;17.99;51.66;93940.63;4987400;28;20037;-75
2023/06/19 04:30:20;;;;;;;4.47;4.05;;;;;;;18.28;50.94;93970.78;4987099;28;20496;-75
2023/06/19 04:32:46;;;;;;;5.78;4.50;;;;;;;18.42;49.96;93960.25;4987873;28;20180;-75
2023/06/19 04:35:12;;;;;;;4.10;3.40;;;;;;;18.49;49.68;93960.38;4985429;28;20079;-75
2023/06/19 04:37:37;;;;;;;5.60;3.53;;;;;;;18.42;49.02;93960.25;4988118;28;20050;-75
2023/06/19 04:40:07;;;;;;;6.93;4.13;;;;;;;18.46;49.46;93959.19;4987641;28;20156;-76
2023/06/19 04:42:33;;;;;;;5.30;4.03;;;;;;;18.56;50.21;93960.50;4988202;28;20049;-74
2023/06/19 04:44:59;;;;;;;6.88;3.67;;;;;;;18.61;50.18;93945.94;4990244;28;20047;-75
2023/06/19 04:47:24;;;;;;;8.43;3.88;;;;;;;18.73;48.96;93961.94;4985593;28;20034;-76
2023/06/19 04:49:50;;;;;;;5.45;3.95;;;;;;;18.60;48.99;93950.56;4988303;28;20024;-76
2023/06/19 04:52:15;;;;;;;5.47;3.78;;;;;;;18.65;49.36;93962.94;4987108;28;20148;-75
2023/06/19 04:54:41;;;;;;;3.88;3.47;;;;;;;18.61;49.23;93960.19;4992882;28;20398;-77
2023/06/19 04:57:06;;;;;;;5.43;3.88;;;;;;;18.74;48.41;93961.59;4988114;28;20077;-75
2023/06/19 04:59:32;;;;;;;3.75;3.45;;;;;;;18.56;48.63;93946.25;4986197;28;20120;-74
2023/06/19 05:01:57;;;;;;;4.38;3.42;;;;;;;18.58;49.19;93960.91;4988099;28;20030;-75
2023/06/19 05:04:23;;;;;;;7.38;3.65;;;;;;;18.52;48.37;93956.19;4987912;28;20451;-75
2023/06/19 05:06:49;;;;;;;5.18;3.58;;;;;;;18.59;48.57;93953.59;4986891;28;20065;-74
2023/06/19 05:09:15;;;;;;;5.05;3.45;;;;;;;18.61;49.01;93951.34;4990220;28;20120;-75
2023/06/19 05:11:40;;;;;;;4.78;3.72;;;;;;;18.56;48.82;93952.41;4988050;28;20630;-76
2023/06/19 05:14:06;;;;;;;5.18;3.33;;;;;;;18.37;49.18;93949.78;4988051;28;20056;-75
2023/06/19 05:16:31;;;;;;;6.63;3.80;;;;;;;18.45;49.85;93929.91;5003542;28;20044;-75
2023/06/19 05:18:57;;;;;;;4.95;3.83;;;;;;;18.71;49.38;93962.31;4985809;28;20053;-76
2023/06/19 05:21:22;;;;;;;4.40;3.65;;;;;;;18.96;49.72;93967.31;4988495;28;20650;-75
2023/06/19 05:23:50;;;;;;;5.28;3.95;;;;;;;18.90;48.13;93969.53;4988530;28;20505;-76
2023/06/19 05:26:16;;;;;;;4.55;3.60;;;;;;;18.99;48.90;93978.16;4987661;28;20122;-74
2023/06/19 05:28:42;;;;;;;3.92;3.53;;;;;;;19.15;47.92;93975.31;4987930;28;20018;-75
2023/06/19 05:31:07;;;;;;;11.30;4.68;;;;;;;18.99;48.82;93978.16;4987847;28;20529;-75
2023/06/19 05:33:32;;;;;;;4.63;4.00;;;;;;;18.87;49.38;93954.84;4987534;28;20042;-75
2023/06/19 05:35:58;;;;;;;4.55;3.85;;;;;;;18.92;49.52;93977.28;4990809;28;20566;-75
2023/06/19 05:38:25;;;;;;;5.95;3.75;;;;;;;19.21;48.43;93993.50;4991325;28;20065;-75
2023/06/19 05:40:51;;;;;;;3.80;3.40;;;;;;;19.36;48.07;93991.78;4992766;28;20022;-74
2023/06/19 05:43:18;;;;;;;4.97;3.55;;;;;;;19.39;48.50;93991.06;4990280;28;20037;-75
2023/06/19 05:45:44;;;;;;;4.53;3.33;;;;;;;19.51;48.37;93995.47;4990861;28;20125;-74
2023/06/19 05:48:09;;;;;;;5.05;3.35;;;;;;;19.51;47.65;93993.56;4991004;28;20096;-75
2023/06/19 05:50:35;;;;;;;4.15;3.38;;;;;;;19.53;48.03;93985.91;4991806;28;20037;-75
2023/06/19 05:53:00;;;;;;;4.50;3.20;;;;;;;19.57;47.26;94002.13;4991558;28;20821;-74
2023/06/19 05:55:27;;;;;;;4.35;3.38;;;;;;;19.52;47.16;93984.34;4990197;28;20037;-75
2023/06/19 05:57:53;;;;;;;4.05;3.65;;;;;;;19.70;47.31;93998.81;4986354;28;20520;-75
2023/06/19 06:00:19;;;;;;;9.15;3.53;;;;;;;19.42;47.80;93992.25;4993489;28;20560;-76
2023/06/19 06:02:44;;;;;;;6.10;3.60;;;;;;;19.52;48.08;94000.53;4993088;28;20042;-75
2023/06/19 06:05:10;;;;;;;5.07;3.78;;;;;;;19.36;47.74;93972.91;4991742;28;20770;-76
2023/06/19 06:07:35;;;;;;;8.48;3.70;;;;;;;19.63;48.09;94004.16;4990984;28;20054;-74
2023/06/19 06:10:01;;;;;;;5.30;4.40;;;;;;;19.74;47.23;94002.38;4994961;28;20030;-73
2023/06/19 06:12:27;;;;;;;4.38;3.97;;;;;;;19.67;48.33;93998.78;4991690;28;20042;-74
2023/06/19 06:14:52;;;;;;;4.93;4.10;;;;;;;19.70;47.57;93989.97;4992127;28;20045;-75
2023/06/19 06:17:17;;;;;;;6.03;3.88;;;;;;;19.80;48.03;94004.75;4990687;28;20036;-76
2023/06/19 06:19:43;;;;;;;10.25;4.60;;;;;;;19.80;47.82;94010.91;4993816;28;20042;-76
2023/06/19 06:22:08;;;;;;;5.13;3.85;;;;;;;19.82;47.53;94007.84;4988669;28;20551;-75
2023/06/19 06:24:34;;;;;;;4.78;3.55;;;;;;;20.04;47.92;94013.13;4989220;28;20417;-75
2023/06/19 06:26:59;;;;;;;4.38;3.75;;;;;;;20.00;48.00;93981.84;4989858;28;20140;-75
2023/06/19 06:29:25;;;;;;;7.72;3.90;;;;;;;20.13;46.59;94002.06;4990311;28;20033;-75
2023/06/19 06:31:52;;;;;;;9.40;3.83;;;;;;;19.91;46.69;94019.13;4988677;28;20033;-75
2023/06/19 06:34:19;;;;;;;11.38;4.20;;;;;;;19.82;47.27;94015.94;4991605;28;20093;-75
2023/06/19 06:36:44;;;;;;;8.73;4.05;;;;;;;19.77;47.28;94000.06;4987472;28;20030;-74
2023/06/19 06:39:10;;;;;;;9.55;4.53;;;;;;;20.09;46.97;94020.16;4989646;28;20089;-75
2023/06/19 06:41:36;;;;;;;4.45;4.03;;;;;;;20.21;46.60;94017.22;4990319;28;20042;-76
2023/06/19 06:44:01;;;;;;;5.53;3.80;;;;;;;20.32;46.22;94014.66;4991436;28;20540;-76
2023/06/19 06:46:27;;;;;;;5.32;4.00;;;;;;;20.24;46.43;94013.03;4986449;28;20617;-75
2023/06/19 06:48:52;;;;;;;5.40;3.78;;;;;;;20.21;46.03;94019.91;4990723;28;20035;-75
2023/06/19 06:51:18;;;;;;;4.30;3.67;;;;;;;20.39;47.03;94026.28;4991655;28;20046;-75
2023/06/19 06:53:43;;;;;;;6.22;3.65;;;;;;;20.25;46.54;94015.34;4992218;28;20044;-75
2023/06/19 06:56:09;;;;;;;5.28;3.72;;;;;;;20.45;46.28;94013.22;4987318;28;20038;-75
2023/06/19 06:58:34;;;;;;;6.63;3.90;;;;;;;20.35;46.09;94020.06;4991434;28;20022;-74
2023/06/19 07:01:00;;;;;;;6.05;3.35;;;;;;;20.29;46.62;93999.94;4988745;28;20033;-73
2023/06/19 07:03:25;;;;;;;5.10;4.00;;;;;;;20.62;45.48;94015.34;4990981;28;20053;-74
2023/06/19 07:05:50;;;;;;;4.13;3.72;;;;;;;20.80;44.71;94019.00;4989217;28;20029;-75
2023/06/19 07:08:16;;;;;;;4.82;3.65;;;;;;;20.69;44.00;94001.09;4989462;28;20014;-72
2023/06/19 07:10:41;;;;;;;3.80;3.40;;;;;;;20.56;44.31;93993.28;4989711;28;20129;-74
2023/06/19 07:13:07;;;;;;;4.20;3.30;;;;;;;19.88;45.64;94017.97;4992648;28;20206;-76
2023/06/19 07:15:32;;;;;;;4.93;3.50;;;;;;;20.04;46.06;94002.31;4987276;28;20034;-74
2023/06/19 07:17:58;;;;;;;3.85;3.53;;;;;;;20.56;45.49;94014.13;4989025;28;20231;-74
2023/06/19 07:20:23;;;;;;;5.85;4.00;;;;;;;20.67;45.19;94019.63;5003892;28;20034;-75
2023/06/19 07:22:52;;;;;;;4.25;3.47;;;;;;;20.59;45.09;94016.84;4990234;28;20030;-74
2023/06/19 07:25:18;;;;;;;5.72;3.55;;;;;;;20.40;43.69;94022.44;4987672;28;20048;-74
2023/06/19 07:27:43;;;;;;;7.63;3.60;;;;;;;20.52;45.17;94021.41;4988664;28;20415;-76
2023/06/19 07:30:10;;;;;;;4.47;3.83;;;;;;;20.32;44.76;94010.03;4989699;28;20084;-74
2023/06/19 07:32:36;;;;;;;6.07;4.53;;;;;;;20.41;45.71;94021.31;4989100;28;20053;-75
2023/06/19 07:35:02;;;;;;;6.28;4.72;;;;;;;20.44;46.00;94014.38;4987894;28;20029;-77
2023/06/19 07:37:27;;;;;;;4.80;4.28;;;;;;;20.49;45.80;94020.22;4991238;28;20041;-75
2023/06/19 07:39:53;;;;;;;8.57;4.00;;;;;;;20.45;46.01;94016.72;4987158;28;20397;-75
2023/06/19 07:42:19;;;;;;;7.75;3.97;;;;;;;20.09;45.95;94029.00;4990332;28;20530;-75
2023/06/19 07:44:45;;;;;;;5.05;3.70;;;;;;;20.25;46.74;94023.44;4986032;28;20046;-75
2023/06/19 07:47:11;;;;;;;6.10;3.85;;;;;;;20.22;46.95;94021.47;4988481;28;20129;-75
2023/06/19 07:49:36;;;;;;;4.95;3.88;;;;;;;20.12;46.13;94030.19;4985882;28;20010;-75
2023/06/19 07:52:03;;;;;;;3.90;3.40;;;;;;;20.08;45.89;94034.78;4992310;28;20099;-75
2023/06/19 07:54:28;;;;;;;5.78;3.97;;;;;;;20.04;45.70;94025.88;4986915;28;20033;-75
2023/06/19 07:56:54;;;;;;;4.50;3.47;;;;;;;20.14;46.56;94030.63;4987501;28;20128;-75
2023/06/19 07:59:19;;;;;;;7.82;3.97;;;;;;;20.31;45.67;94030.06;4987945;28;20026;-76
2023/06/19 08:01:45;;;;;;;5.60;4.03;;;;;;;20.52;46.47;94030.31;4988927;28;20093;-74
2023/06/19 08:04:10;;;;;;;3.95;3.55;;;;;;;20.62;46.50;94019.97;4988789;28;20056;-74
2023/06/19 08:06:36;;;;;;;5.25;3.67;;;;;;;20.80;45.01;94026.31;4988559;28;20473;-75
2023/06/19 08:09:02;;;;;;;4.30;3.50;;;;;;;20.65;45.46;94016.50;4987133;28;20080;-75
2023/06/19 08:11:28;;;;;;;4.15;3.33;;;;;;;20.77;45.71;94025.16;4989409;28;20030;-75
2023/06/19 08:13:54;;;;;;;3.50;3.17;;;;;;;20.87;44.51;94019.09;4988537;28;20047;-75
2023/06/19 08:16:19;;;;;;;3.65;3.05;;;;;;;20.87;44.31;94012.91;4987302;28;20034;-75
2023/06/19 08:18:45;;;;;;;4.97;3.40;;;;;;;20.98;44.73;94032.69;4988492;28;20042;-73
2023/06/19 08:21:11;;;;;;;4.30;3.10;;;;;;;21.15;41.66;94028.59;4988323;28;20456;-74
2023/06/19 08:23:37;;;;;;;5.43;3.05;;;;;;;20.79;42.57;94028.25;4989049;28;20088;-74
2023/06/19 08:26:03;;;;;;;6.68;3.40;;;;;;;20.81;41.72;94025.94;4990507;28;20374;-75
2023/06/19 08:28:31;;;;;;;7.63;2.90;;;;;;;20.88;42.30;94026.03;4988055;28;20030;-75
2023/06/19 08:30:56;;;;;;;5.28;3.58;;;;;;;20.73;43.12;94028.97;4986905;28;20077;-75
2023/06/19 08:33:22;;;;;;;3.63;3.15;;;;;;;20.87;41.28;94026.44;4988101;28;20536;-75
2023/06/19 08:35:48;;;;;;;5.20;2.55;;;;;;;20.79;39.78;94016.66;4989182;28;20038;-75
2023/06/19 08:38:13;;;;;;;3.88;2.85;;;;;;;20.88;40.10;94036.06;4988702;28;20028;-74
2023/06/19 08:40:41;;;;;;;4.05;2.88;;;;;;;20.84;40.68;94027.91;4989519;28;20049;-76
2023/06/19 08:43:06;;;;;;;3.28;2.72;;;;;;;20.85;39.74;94024.06;4985137;28;20042;-75
2023/06/19 08:45:31;;;;;;;3.92;3.00;;;;;;;20.94;39.97;94018.34;4988860;28;20046;-74
2023/06/19 08:48:03;;;;;;;5.03;3.28;;;;;;;21.05;40.34;94026.56;4987040;28;20061;-76
2023/06/19 08:50:32;;;;;;;4.75;3.28;;;;;;;20.86;39.86;94012.09;4986406;28;20065;-75
2023/06/19 08:52:58;;;;;;;4.57;2.53;;;;;;;20.96;38.74;94027.66;4986447;28;20951;-75
2023/06/19 08:55:23;;;;;;;4.05;3.03;;;;;;;20.92;40.16;94026.09;4987557;28;20104;-75
2023/06/19 08:57:50;;;;;;;4.95;2.85;;;;;;;20.78;40.40;94020.50;4985946;28;20042;-75
2023/06/19 09:00:26;;;;;;;4.60;3.33;;;;;;;20.76;39.13;94029.00;4988585;28;20033;-75
2023/06/19 09:02:57;;;;;;;4.90;2.72;;;;;;;20.81;39.86;94038.69;4986676;28;20118;-76
2023/06/19 09:05:23;;;;;;;6.60;3.70;;;;;;;20.72;38.31;94027.41;4988563;28;20037;-75
2023/06/19 09:07:56;;;;;;;3.30;2.95;;;;;;;20.71;38.26;94031.25;4988760;28;20030;-74
2023/06/19 09:10:23;;;;;;;4.22;3.00;;;;;;;20.81;37.90;94035.97;4989078;28;20034;-75
2023/06/19 09:13:00;;;;;;;17.70;3.50;;;;;;;21.07;39.09;94030.44;4991213;28;20030;-75
2023/06/19 09:15:30;;;;;;;3.47;2.70;;;;;;;21.01;36.90;94023.84;4994172;28;20599;-76
2023/06/19 09:18:07;;;;;;;3.45;2.97;;;;;;;21.34;36.45;94031.03;4991683;28;20097;-76
2023/06/19 09:20:40;;;;;;;4.30;2.85;;;;;;;21.19;37.19;94030.16;4990902;28;20082;-76
2023/06/19 09:23:05;;;;;;;3.42;2.40;;;;;;;21.12;37.60;94024.69;4992847;28;20075;-75
2023/06/19 09:25:31;;;;;;;5.75;3.28;;;;;;;21.23;38.08;94025.56;4989474;28;20404;-75
2023/06/19 09:27:57;;;;;;;5.95;2.83;;;;;;;20.96;39.13;94029.59;4991593;28;20042;-74
2023/06/19 09:30:23;;;;;;;4.65;3.22;;;;;;;21.22;38.49;94024.00;4992473;28;20037;-75
2023/06/19 09:32:49;;;;;;;3.95;3.40;;;;;;;21.19;40.08;94003.13;4991098;28;20034;-75
2023/06/19 09:35:14;;;;;;;6.40;3.70;;;;;;;21.34;38.36;94023.72;4991643;28;20095;-75
2023/06/19 09:37:40;;;;;;;4.53;2.88;;;;;;;21.52;37.00;94020.34;4991535;28;20033;-74
2023/06/19 09:40:10;;;;;;;4.60;2.90;;;;;;;21.47;37.14;94018.75;4993069;28;20312;-74
2023/06/19 09:42:38;;;;;;;3.28;2.83;;;;;;;21.43;37.28;94013.34;4989991;28;20038;-74
2023/06/19 09:45:08;;;;;;;4.05;3.13;;;;;;;21.60;38.03;94032.81;4992905;28;20057;-75
2023/06/19 09:47:38;;;;;;;4.18;3.40;;;;;;;21.62;39.73;94036.66;4989205;28;20084;-76
2023/06/19 09:50:06;;;;;;;6.43;3.97;;;;;;;21.62;38.60;94025.06;4992811;28;20652;-75
2023/06/19 09:52:33;;;;;;;5.03;3.40;;;;;;;21.43;39.31;94007.13;4991134;28;20418;-74
2023/06/19 09:55:02;;;;;;;5.22;3.83;;;;;;;21.49;39.83;94026.50;4989220;28;20038;-75
2023/06/19 09:57:28;;;;;;;5.40;2.55;;;;;;;21.31;39.86;94021.75;4991912;28;20124;-75
2023/06/19 10:00:09;;;;;;;6.43;3.47;;;;;;;21.28;38.63;94033.31;4988460;28;20125;-74
2023/06/19 10:02:36;;;;;;;7.15;3.03;;;;;;;21.12;38.91;94003.03;4991107;28;20153;-73
2023/06/19 10:05:01;;;;;;;5.22;3.45;;;;;;;20.94;39.37;94002.13;4990664;28;20026;-73
2023/06/19 10:07:33;;;;;;;7.75;3.78;;;;;;;21.13;39.90;94010.00;4992927;28;20029;-74
2023/06/19 10:10:07;;;;;;;5.57;3.30;;;;;;;21.32;40.34;94004.34;4990589;28;20781;-73
2023/06/19 10:12:46;;;;;;;5.03;4.05;;;;;;;21.32;39.27;94017.88;4991301;28;20472;-74
2023/06/19 10:15:29;;;;;;;6.00;3.45;;;;;;;21.63;40.26;94010.38;4988838;28;20621;-73
2023/06/19 10:18:05;;;;;;;3.65;3.30;;;;;;;21.57;37.97;94012.66;4990315;28;20564;-73
2023/06/19 10:20:41;;;;;;;5.50;3.30;;;;;;;21.59;38.22;94006.88;4989018;28;20475;-75
2023/06/19 10:23:06;;;;;;;5.50;3.92;;;;;;;21.66;36.50;94010.41;4991823;28;20396;-74
2023/06/19 10:25:37;;;;;;;3.17;2.80;;;;;;;21.78;36.69;94001.97;4989748;28;20553;-74
2023/06/19 10:28:07;;;;;;;5.55;3.58;;;;;;;21.82;38.96;93996.56;5005246;28;20624;-73
2023/06/19 10:30:34;;;;;;;6.13;2.97;;;;;;;21.75;37.30;93996.53;4987618;28;20050;-75
2023/06/19 10:33:03;;;;;;;4.15;3.60;;;;;;;21.80;36.03;93998.88;5005350;28;20057;-75
2023/06/19 10:35:29;;;;;;;5.80;3.58;;;;;;;21.74;36.59;94001.19;4989580;28;20049;-75
2023/06/19 10:37:55;;;;;;;5.10;3.65;;;;;;;21.99;36.31;93995.88;4989963;28;20026;-75
2023/06/19 10:40:20;;;;;;;4.93;3.65;;;;;;;21.79;36.92;93998.13;4991526;28;20072;-75
2023/06/19 10:42:46;;;;;;;4.43;2.70;;;;;;;21.86;35.11;93997.34;4987433;28;20033;-75
2023/06/19 10:45:13;;;;;;;3.30;2.65;;;;;;;22.03;34.24;94002.09;4989965;28;20092;-75
2023/06/19 10:47:40;;;;;;;7.00;3.03;;;;;;;21.89;36.16;93993.91;4990245;28;20070;-75
2023/06/19 10:50:15;;;;;;;4.53;3.45;;;;;;;22.00;37.22;93992.00;4988971;28;20026;-74
2023/06/19 10:52:44;;;;;;;5.93;3.50;;;;;;;22.08;38.19;93993.59;5006436;28;20459;-74
2023/06/19 10:55:10;;;;;;;7.22;3.67;;;;;;;22.12;36.93;93993.59;4989100;28;20129;-76
2023/06/19 10:57:36;;;;;;;4.00;3.60;;;;;;;22.00;37.02;93973.03;4989209;28;20461;-74
2023/06/19 11:00:06;;;;;;;5.55;3.50;;;;;;;21.90;38.02;93984.63;4989140;28;20042;-75
2023/06/19 11:02:32;;;;;;;3.80;3.00;;;;;;;21.59;37.77;93977.13;4990735;28;20038;-75
2023/06/19 11:04:57;;;;;;;5.53;3.70;;;;;;;21.92;39.33;93979.59;4988832;28;20030;-75
2023/06/19 11:07:23;;;;;;;4.63;3.03;;;;;;;22.16;38.90;93983.53;4990219;28;20065;-75
2023/06/19 11:09:51;;;;;;;4.43;3.88;;;;;;;22.32;39.53;93991.38;5006674;28;20042;-75
2023/06/19 11:12:20;;;;;;;4.13;3.05;;;;;;;22.24;38.19;93991.34;4989700;28;20594;-75
2023/06/19 11:14:50;;;;;;;5.72;3.92;;;;;;;22.39;38.75;93983.28;4990957;28;20050;-75
2023/06/19 11:17:20;;;;;;;3.67;3.38;;;;;;;22.53;39.28;93980.59;4990624;28;20041;-74
2023/06/19 11:19:46;;;;;;;8.27;3.25;;;;;;;22.62;38.38;93981.00;4988141;28;20049;-75
2023/06/19 11:22:11;;;;;;;7.15;3.55;;;;;;;22.39;38.43;93965.06;4989985;28;20259;-75
2023/06/19 11:24:42;;;;;;;7.20;3.78;;;;;;;22.57;38.28;93986.78;4990671;28;20037;-75
2023/06/19 11:27:16;;;;;;;4.60;3.20;;;;;;;22.22;37.92;93974.72;4988547;28;20038;-74
2023/06/19 11:29:42;;;;;;;5.00;3.75;;;;;;;22.18;38.78;93963.06;4990372;28;20488;-75
2023/06/19 11:32:12;;;;;;;4.20;3.28;;;;;;;22.23;38.79;93961.94;4989242;28;20105;-74